Terminal Aerodrome Forecast
Issued by NWS Shreveport, LA

Home | Current Version | Previous Version | Text Only | Print | Product List | Glossary On
Versions: 1 2 3 4 5 6 7 8 9 10 11 12 13
000
FTUS44 KSHV 302300 RRA
TAFLFK
TAF
KLFK 302346Z 3100/3124 10006KT P6SM SCT250
     FM310300 13004KT P6SM BKN150 BKN250
     FM310600 14003KT P6SM SCT150 BKN250
     FM311200 15004KT P6SM BKN017
     FM311500 17006KT P6SM SCT023 BKN150 BKN250
     FM311800 18006KT P6SM SCT040 BKN150 BKN250
     FM312200 18006KT P6SM VCTS BKN045CB=

USA.gov is the U.S. government's official web portal to all federal, state and local government web resources and services.